sensor_id;sensor_type;location;lat;lon;timestamp;temperature;humidity
10441;DHT22;5268;49.346;9.522;2022-11-15T04:22:32;6.90;99.90
10441;DHT22;5268;49.346;9.522;2022-11-15T04:27:51;6.90;99.90
10441;DHT22;5268;49.346;9.522;2022-11-15T04:32:54;6.90;99.90
10441;DHT22;5268;49.346;9.522;2022-11-15T04:37:57;6.80;99.90
10441;DHT22;5268;49.346;9.522;2022-11-15T04:42:59;6.90;99.90
10441;DHT22;5268;49.346;9.522;2022-11-15T04:48:02;6.90;99.90
10441;DHT22;5268;49.346;9.522;2022-11-15T04:53:05;6.80;99.90
10441;DHT22;5268;49.346;9.522;2022-11-15T04:58:09;6.80;99.90
10441;DHT22;5268;49.346;9.522;2022-11-15T05:03:12;6.80;99.90
10441;DHT22;5268;49.346;9.522;2022-11-15T05:08:33;6.70;99.90
10441;DHT22;5268;49.346;9.522;2022-11-15T05:13:35;6.70;99.90
10441;DHT22;5268;49.346;9.522;2022-11-15T05:18:37;6.70;99.90
10441;DHT22;5268;49.346;9.522;2022-11-15T05:23:42;6.70;99.90
10441;DHT22;5268;49.346;9.522;2022-11-15T05:28:44;6.70;99.90
10441;DHT22;5268;49.346;9.522;2022-11-15T05:33:48;6.70;99.90
10441;DHT22;5268;49.346;9.522;2022-11-15T05:38:58;6.70;99.90
10441;DHT22;5268;49.346;9.522;2022-11-15T05:44:04;6.80;99.90
10441;DHT22;5268;49.346;9.522;2022-11-15T05:49:14;6.80;99.90
10441;DHT22;5268;49.346;9.522;2022-11-15T05:54:28;6.80;99.90
10441;DHT22;5268;49.346;9.522;2022-11-15T06:05:09;6.80;99.90
10441;DHT22;5268;49.346;9.522;2022-11-15T06:10:12;6.80;99.90
10441;DHT22;5268;49.346;9.522;2022-11-15T06:15:14;6.80;99.90
10441;DHT22;5268;49.346;9.522;2022-11-15T06:20:17;6.70;99.90
10441;DHT22;5268;49.346;9.522;2022-11-15T06:25:20;6.70;99.90
10441;DHT22;5268;49.346;9.522;2022-11-15T06:30:23;6.60;99.90
10441;DHT22;5268;49.346;9.522;2022-11-15T06:35:25;6.60;99.90
10441;DHT22;5268;49.346;9.522;2022-11-15T06:40:29;6.60;99.90
10441;DHT22;5268;49.346;9.522;2022-11-15T06:45:31;6.60;99.90
10441;DHT22;5268;49.346;9.522;2022-11-15T06:50:33;6.60;99.90
10441;DHT22;5268;49.346;9.522;2022-11-15T06:55:37;6.60;99.90
10441;DHT22;5268;49.346;9.522;2022-11-15T07:00:39;6.60;99.90
10441;DHT22;5268;49.346;9.522;2022-11-15T07:05:41;6.60;99.90
10441;DHT22;5268;49.346;9.522;2022-11-15T07:10:44;6.80;99.90
10441;DHT22;5268;49.346;9.522;2022-11-15T07:15:49;7.30;99.90
10441;DHT22;5268;49.346;9.522;2022-11-15T07:20:51;8.00;99.90
10441;DHT22;5268;49.346;9.522;2022-11-15T07:25:56;8.70;99.90
10441;DHT22;5268;49.346;9.522;2022-11-15T07:31:02;9.30;99.90
10441;DHT22;5268;49.346;9.522;2022-11-15T07:36:05;9.50;99.90
10441;DHT22;5268;49.346;9.522;2022-11-15T07:41:09;9.60;99.90
10441;DHT22;5268;49.346;9.522;2022-11-15T07:46:13;9.70;99.90
10441;DHT22;5268;49.346;9.522;2022-11-15T07:51:16;9.90;99.90
10441;DHT22;5268;49.346;9.522;2022-11-15T07:56:20;10.50;99.90
10441;DHT22;5268;49.346;9.522;2022-11-15T08:01:22;10.80;99.90
10441;DHT22;5268;49.346;9.522;2022-11-15T08:06:27;11.30;99.90
10441;DHT22;5268;49.346;9.522;2022-11-15T08:11:32;12.10;99.90
10441;DHT22;5268;49.346;9.522;2022-11-15T08:16:37;13.20;99.90
10441;DHT22;5268;49.346;9.522;2022-11-15T08:21:57;14.20;99.90
10441;DHT22;5268;49.346;9.522;2022-11-15T08:27:01;15.20;99.90
10441;DHT22;5268;49.346;9.522;2022-11-15T08:32:04;15.70;99.90
10441;DHT22;5268;49.346;9.522;2022-11-15T08:37:06;16.30;99.90
10441;DHT22;5268;49.346;9.522;2022-11-15T08:42:10;16.10;99.90
10441;DHT22;5268;49.346;9.522;2022-11-15T08:47:13;16.20;99.90
10441;DHT22;5268;49.346;9.522;2022-11-15T08:52:16;16.50;99.90
10441;DHT22;5268;49.346;9.522;2022-11-15T08:57:19;16.60;99.90
10441;DHT22;5268;49.346;9.522;2022-11-15T09:02:21;16.80;99.90
10441;DHT22;5268;49.346;9.522;2022-11-15T09:07:24;17.00;99.90
10441;DHT22;5268;49.346;9.522;2022-11-15T09:12:27;16.80;99.90
10441;DHT22;5268;49.346;9.522;2022-11-15T09:17:29;16.20;99.90
10441;DHT22;5268;49.346;9.522;2022-11-15T09:22:31;15.80;99.90
10441;DHT22;5268;49.346;9.522;2022-11-15T09:27:35;15.50;99.90
10441;DHT22;5268;49.346;9.522;2022-11-15T09:32:37;15.60;99.90
10441;DHT22;5268;49.346;9.522;2022-11-15T09:37:39;15.50;99.90
10441;DHT22;5268;49.346;9.522;2022-11-15T09:42:57;15.50;99.90
10441;DHT22;5268;49.346;9.522;2022-11-15T09:48:24;15.50;99.90
10441;DHT22;5268;49.346;9.522;2022-11-15T09:53:32;15.70;99.90
10441;DHT22;5268;49.346;9.522;2022-11-15T09:58:40;15.80;99.90
10441;DHT22;5268;49.346;9.522;2022-11-15T10:03:45;15.80;99.90
10441;DHT22;5268;49.346;9.522;2022-11-15T10:08:53;15.70;99.90
10441;DHT22;5268;49.346;9.522;2022-11-15T10:14:01;15.60;99.90
10441;DHT22;5268;49.346;9.522;2022-11-15T10:19:09;15.50;99.90
10441;DHT22;5268;49.346;9.522;2022-11-15T10:24:20;15.50;99.90
10441;DHT22;5268;49.346;9.522;2022-11-15T10:29:27;15.40;99.90
10441;DHT22;5268;49.346;9.522;2022-11-15T10:34:29;15.40;99.90
10441;DHT22;5268;49.346;9.522;2022-11-15T10:39:37;15.40;99.90
10441;DHT22;5268;49.346;9.522;2022-11-15T10:44:43;15.50;99.90
10441;DHT22;5268;49.346;9.522;2022-11-15T10:49:54;15.60;99.90
10441;DHT22;5268;49.346;9.522;2022-11-15T10:55:01;15.70;99.90
10441;DHT22;5268;49.346;9.522;2022-11-15T11:00:26;15.80;99.90
10441;DHT22;5268;49.346;9.522;2022-11-15T11:05:30;15.80;99.90
10441;DHT22;5268;49.346;9.522;2022-11-15T11:10:33;15.80;99.90
10441;DHT22;5268;49.346;9.522;2022-11-15T11:15:37;15.70;99.90
10441;DHT22;5268;49.346;9.522;2022-11-15T11:20:43;15.70;99.90
10441;DHT22;5268;49.346;9.522;2022-11-15T11:25:50;15.70;99.90
10441;DHT22;5268;49.346;9.522;2022-11-15T11:31:04;15.70;99.90
10441;DHT22;5268;49.346;9.522;2022-11-15T11:36:18;15.60;99.90
10441;DHT22;5268;49.346;9.522;2022-11-15T11:41:43;15.50;99.90
10441;DHT22;5268;49.346;9.522;2022-11-15T11:46:54;15.40;99.90
10441;DHT22;5268;49.346;9.522;2022-11-15T11:52:03;15.40;99.90
10441;DHT22;5268;49.346;9.522;2022-11-15T11:57:15;15.30;99.90
10441;DHT22;5268;49.346;9.522;2022-11-15T12:02:27;15.20;99.90
10441;DHT22;5268;49.346;9.522;2022-11-15T12:07:33;15.10;99.90
10441;DHT22;5268;49.346;9.522;2022-11-15T12:12:39;15.10;99.90
10441;DHT22;5268;49.346;9.522;2022-11-15T12:17:46;15.20;99.90
10441;DHT22;5268;49.346;9.522;2022-11-15T12:22:56;15.30;99.90
10441;DHT22;5268;49.346;9.522;2022-11-15T12:28:03;15.40;99.90
10441;DHT22;5268;49.346;9.522;2022-11-15T12:33:35;15.50;99.90
10441;DHT22;5268;49.346;9.522;2022-11-15T12:38:57;15.50;99.90
10441;DHT22;5268;49.346;9.522;2022-11-15T12:44:11;15.50;99.90
10441;DHT22;5268;49.346;9.522;2022-11-15T12:49:45;15.50;99.90
10441;DHT22;5268;49.346;9.522;2022-11-15T12:54:54;15.60;99.90
10441;DHT22;5268;49.346;9.522;2022-11-15T13:00:00;15.60;99.90
10441;DHT22;5268;49.346;9.522;2022-11-15T13:05:55;15.70;99.90
10441;DHT22;5268;49.346;9.522;2022-11-15T13:10:57;15.70;99.90
10441;DHT22;5268;49.346;9.522;2022-11-15T13:15:59;15.70;99.90
10441;DHT22;5268;49.346;9.522;2022-11-15T13:21:19;15.60;99.90
10441;DHT22;5268;49.346;9.522;2022-11-15T13:26:39;15.60;99.90
10441;DHT22;5268;49.346;9.522;2022-11-15T13:31:43;15.60;99.90
10441;DHT22;5268;49.346;9.522;2022-11-15T13:36:47;15.60;99.90
10441;DHT22;5268;49.346;9.522;2022-11-15T13:41:50;15.60;99.90
10441;DHT22;5268;49.346;9.522;2022-11-15T13:47:04;15.60;99.90
10441;DHT22;5268;49.346;9.522;2022-11-15T13:52:10;15.60;99.90
10441;DHT22;5268;49.346;9.522;2022-11-15T13:57:16;15.60;99.90
10441;DHT22;5268;49.346;9.522;2022-11-15T14:02:25;15.60;99.90
10441;DHT22;5268;49.346;9.522;2022-11-15T14:07:30;15.70;99.90
10441;DHT22;5268;49.346;9.522;2022-11-15T14:12:34;15.70;99.90
10441;DHT22;5268;49.346;9.522;2022-11-15T14:17:37;15.60;99.90
10441;DHT22;5268;49.346;9.522;2022-11-15T14:22:51;15.60;99.90
10441;DHT22;5268;49.346;9.522;2022-11-15T14:28:15;15.60;99.90
10441;DHT22;5268;49.346;9.522;2022-11-15T14:33:20;15.60;99.90
10441;DHT22;5268;49.346;9.522;2022-11-15T14:38:25;15.50;99.90
10441;DHT22;5268;49.346;9.522;2022-11-15T14:43:28;15.50;99.90
10441;DHT22;5268;49.346;9.522;2022-11-15T14:48:30;15.50;99.90
10441;DHT22;5268;49.346;9.522;2022-11-15T14:53:33;15.40;99.90
10441;DHT22;5268;49.346;9.522;2022-11-15T14:58:35;15.30;99.90
10441;DHT22;5268;49.346;9.522;2022-11-15T15:03:37;15.30;99.90
10441;DHT22;5268;49.346;9.522;2022-11-15T15:08:41;15.30;99.90
10441;DHT22;5268;49.346;9.522;2022-11-15T15:13:43;15.20;99.90
10441;DHT22;5268;49.346;9.522;2022-11-15T15:18:45;15.10;99.90
10441;DHT22;5268;49.346;9.522;2022-11-15T15:23:48;15.10;99.90
10441;DHT22;5268;49.346;9.522;2022-11-15T15:28:50;15.00;99.90
10441;DHT22;5268;49.346;9.522;2022-11-15T15:33:53;14.90;99.90
10441;DHT22;5268;49.346;9.522;2022-11-15T15:38:56;14.80;99.90
10441;DHT22;5268;49.346;9.522;2022-11-15T15:43:58;14.80;99.90
10441;DHT22;5268;49.346;9.522;2022-11-15T15:49:00;14.70;99.90
10441;DHT22;5268;49.346;9.522;2022-11-15T15:54:04;14.60;99.90
10441;DHT22;5268;49.346;9.522;2022-11-15T15:59:06;14.40;99.90
10441;DHT22;5268;49.346;9.522;2022-11-15T16:04:08;14.30;99.90
10441;DHT22;5268;49.346;9.522;2022-11-15T16:09:13;14.30;99.90
10441;DHT22;5268;49.346;9.522;2022-11-15T16:14:16;14.20;99.90
10441;DHT22;5268;49.346;9.522;2022-11-15T16:19:18;14.10;99.90
10441;DHT22;5268;49.346;9.522;2022-11-15T16:24:22;14.00;99.90
10441;DHT22;5268;49.346;9.522;2022-11-15T16:29:25;14.00;99.90
10441;DHT22;5268;49.346;9.522;2022-11-15T16:34:27;13.90;99.90
10441;DHT22;5268;49.346;9.522;2022-11-15T16:39:31;13.90;99.90
10441;DHT22;5268;49.346;9.522;2022-11-15T16:44:33;13.80;99.90
10441;DHT22;5268;49.346;9.522;2022-11-15T16:49:42;13.80;99.90
10441;DHT22;5268;49.346;9.522;2022-11-15T16:54:49;13.80;99.90
10441;DHT22;5268;49.346;9.522;2022-11-15T16:59:51;13.70;99.90
10441;DHT22;5268;49.346;9.522;2022-11-15T17:04:53;13.70;99.90
10441;DHT22;5268;49.346;9.522;2022-11-15T17:09:57;13.60;99.90
10441;DHT22;5268;49.346;9.522;2022-11-15T17:14:59;13.60;99.90
10441;DHT22;5268;49.346;9.522;2022-11-15T17:20:02;13.50;99.90
10441;DHT22;5268;49.346;9.522;2022-11-15T17:25:10;13.50;99.90
10441;DHT22;5268;49.346;9.522;2022-11-15T17:30:13;13.50;99.90
10441;DHT22;5268;49.346;9.522;2022-11-15T17:35:16;13.40;99.90
10441;DHT22;5268;49.346;9.522;2022-11-15T17:40:20;13.40;99.90
10441;DHT22;5268;49.346;9.522;2022-11-15T17:45:22;13.30;99.90
10441;DHT22;5268;49.346;9.522;2022-11-15T17:50:24;13.30;99.90
10441;DHT22;5268;49.346;9.522;2022-11-15T17:55:27;13.30;99.90
10441;DHT22;5268;49.346;9.522;2022-11-15T18:00:29;13.20;99.90
10441;DHT22;5268;49.346;9.522;2022-11-15T18:05:31;13.20;99.90
10441;DHT22;5268;49.346;9.522;2022-11-15T18:16:45;13.10;99.90
10441;DHT22;5268;49.346;9.522;2022-11-15T18:21:47;13.10;99.90
10441;DHT22;5268;49.346;9.522;2022-11-15T18:26:59;13.10;99.90
10441;DHT22;5268;49.346;9.522;2022-11-15T18:32:04;13.10;99.90
10441;DHT22;5268;49.346;9.522;2022-11-15T18:37:11;13.10;99.90
10441;DHT22;5268;49.346;9.522;2022-11-15T18:42:13;13.00;99.90
10441;DHT22;5268;49.346;9.522;2022-11-15T18:47:16;13.00;99.90
10441;DHT22;5268;49.346;9.522;2022-11-15T18:52:19;13.00;99.90
10441;DHT22;5268;49.346;9.522;2022-11-15T18:57:22;13.00;99.90
10441;DHT22;5268;49.346;9.522;2022-11-15T19:02:25;13.00;99.90
10441;DHT22;5268;49.346;9.522;2022-11-15T19:07:27;13.00;99.90
10441;DHT22;5268;49.346;9.522;2022-11-15T19:12:29;13.00;99.90
10441;DHT22;5268;49.346;9.522;2022-11-15T19:17:33;13.00;99.90
10441;DHT22;5268;49.346;9.522;2022-11-15T19:22:36;12.90;99.90
10441;DHT22;5268;49.346;9.522;2022-11-15T19:27:38;13.00;99.90
10441;DHT22;5268;49.346;9.522;2022-11-15T19:32:42;12.90;99.90
10441;DHT22;5268;49.346;9.522;2022-11-15T19:37:44;12.90;99.90
10441;DHT22;5268;49.346;9.522;2022-11-15T19:42:46;12.80;99.90
10441;DHT22;5268;49.346;9.522;2022-11-15T19:47:54;12.80;99.90
10441;DHT22;5268;49.346;9.522;2022-11-15T19:52:57;12.80;99.90
10441;DHT22;5268;49.346;9.522;2022-11-15T19:57:59;12.80;99.90
10441;DHT22;5268;49.346;9.522;2022-11-15T20:03:03;12.80;99.90
10441;DHT22;5268;49.346;9.522;2022-11-15T20:08:05;12.80;99.90
10441;DHT22;5268;49.346;9.522;2022-11-15T20:13:08;12.80;99.90
10441;DHT22;5268;49.346;9.522;2022-11-15T20:18:12;12.70;99.90
10441;DHT22;5268;49.346;9.522;2022-11-15T20:23:14;12.70;99.90
10441;DHT22;5268;49.346;9.522;2022-11-15T20:28:17;12.60;99.90
10441;DHT22;5268;49.346;9.522;2022-11-15T20:33:22;12.70;99.90
10441;DHT22;5268;49.346;9.522;2022-11-15T20:38:24;12.60;99.90
10441;DHT22;5268;49.346;9.522;2022-11-15T20:43:26;12.60;99.90
10441;DHT22;5268;49.346;9.522;2022-11-15T20:48:30;12.60;99.90
10441;DHT22;5268;49.346;9.522;2022-11-15T20:53:34;12.60;99.90
10441;DHT22;5268;49.346;9.522;2022-11-15T20:58:37;12.60;99.90
10441;DHT22;5268;49.346;9.522;2022-11-15T21:03:41;12.50;99.90
10441;DHT22;5268;49.346;9.522;2022-11-15T21:08:43;12.50;99.90
10441;DHT22;5268;49.346;9.522;2022-11-15T21:14:03;12.40;99.90
10441;DHT22;5268;49.346;9.522;2022-11-15T21:19:06;12.40;99.90
10441;DHT22;5268;49.346;9.522;2022-11-15T21:24:09;12.40;99.90
10441;DHT22;5268;49.346;9.522;2022-11-15T21:29:11;12.40;99.90
10441;DHT22;5268;49.346;9.522;2022-11-15T21:34:18;12.40;99.90
10441;DHT22;5268;49.346;9.522;2022-11-15T21:39:20;12.40;99.90
10441;DHT22;5268;49.346;9.522;2022-11-15T21:44:22;12.40;99.90
10441;DHT22;5268;49.346;9.522;2022-11-15T21:49:26;12.40;99.90
10441;DHT22;5268;49.346;9.522;2022-11-15T21:54:28;12.30;99.90
10441;DHT22;5268;49.346;9.522;2022-11-15T21:59:30;12.30;99.90
10441;DHT22;5268;49.346;9.522;2022-11-15T22:04:33;12.30;99.90
10441;DHT22;5268;49.346;9.522;2022-11-15T22:09:35;12.30;99.90
10441;DHT22;5268;49.346;9.522;2022-11-15T22:14:37;12.30;99.90
10441;DHT22;5268;49.346;9.522;2022-11-15T22:19:41;12.30;99.90
10441;DHT22;5268;49.346;9.522;2022-11-15T22:24:43;12.20;99.90
10441;DHT22;5268;49.346;9.522;2022-11-15T22:29:45;12.20;99.90
